Friday, January 19, 2018, 10:31 PM EST
Back to Local

KDAW, Skyhaven Airport

Location: Rochester, NH, United States Lat: 43.283
Local Time: 10:31 PM EST ( 3:31 GMT) Lon: -70.917
Time Zone: US/Eastern Elev: 321 ft

Show me the last for .
Show Decoded

2018-01-19 21:51 METAR KDAW 200251Z AUTO 00000KT 10SM BKN037 M02/M06 A2986 RMK AO2 SLP114
                 T10221056 58006 =
2018-01-19 20:51 METAR KDAW 200151Z AUTO 00000KT 10SM BKN036 M02/M06 A2988 RMK AO2 SLP120
                 T10221056 =
2018-01-19 19:51 METAR KDAW 200051Z AUTO 00000KT 10SM OVC034 M02/M06 A2989 RMK AO2 SLP126
                 T10171056 =
2018-01-19 18:51 METAR KDAW 192351Z AUTO 00000KT 10SM OVC034 M02/M06 A2988 RMK AO2 SLP121
                 T10171056 10000 21017 58002 =
2018-01-19 17:51 METAR KDAW 192251Z AUTO 00000KT 10SM OVC037 M01/M06 A2988 RMK AO2 SLP119
                 T10111056 =
2018-01-19 16:51 METAR KDAW 192151Z AUTO 00000KT 10SM OVC031 M01/M06 A2990 RMK AO2 SLP128
                 T10111056 =
2018-01-19 15:51 METAR KDAW 192051Z AUTO VRB03KT 10SM OVC034 M01/M06 A2989 RMK AO2 SLP123
                 T10061061 53002 =
2018-01-19 14:51 METAR KDAW 191951Z AUTO 00000KT 10SM OVC033 00/M06 A2989 RMK AO2 SLP123
                 T00001056 =
2018-01-19 13:51 METAR KDAW 191851Z AUTO VRB03KT 10SM OVC035 M01/M06 A2988 RMK AO2 SLP119
                 T10061061 =
2018-01-19 12:51 METAR KDAW 191751Z AUTO 31004KT 10SM OVC037 M01/M06 A2988 RMK AO2 SLP121 60000
                 T10061061 10000 21094 58018 =
2018-01-19 11:51 METAR KDAW 191651Z AUTO 00000KT 10SM OVC038 M01/M06 A2990 RMK AO2 SLP127
                 T10061061 =
2018-01-19 10:51 METAR KDAW 191551Z AUTO 31003KT 10SM BKN041 M02/M06 A2992 RMK AO2 SLP135
                 T10171061 =
2018-01-19 09:51 METAR KDAW 191451Z AUTO 32005KT 10SM SCT060 M04/M07 A2994 RMK AO2 SLP140 60000
                 T10441072 51013 =
2018-01-19 08:51 METAR KDAW 191351Z AUTO 00000KT 10SM CLR M06/M08 A2994 RMK AO2 SLP140 T10561078
                 =
2018-01-19 07:51 METAR KDAW 191251Z AUTO 32004KT 10SM SCT041 BKN090 M08/M09 A2993 RMK AO2 SNE06
                 SLP136 P0000 T10831094 =
2018-01-19 07:14 METAR KDAW 191214Z AUTO 00000KT 10SM SCT026 SCT120 M08/M09 A2993 RMK AO2 SNE06
                 P0000 T10831094 =
2018-01-19 06:51 METAR KDAW 191151Z AUTO 00000KT 4SM -SN BR OVC024 M08/M09 A2990 RMK AO2 SNB17
                 SLP127 P0000 60000 T10781089 11067 21106 50007 =
2018-01-19 06:41 METAR KDAW 191141Z AUTO 00000KT 2SM -SN BR OVC020 M07/M08 A2991 RMK AO2 SNB17
                 P0000 T10721083 =
2018-01-19 06:31 METAR KDAW 191131Z AUTO 00000KT 1 1/2SM -SN BR OVC024 M07/M09 A2990 RMK AO2
                 SNB17 P0000 T10721089 =
2018-01-19 06:22 METAR KDAW 191122Z AUTO 00000KT 2 1/2SM -SN BR OVC028 M08/M09 A2990 RMK AO2
                 SNB17 P0000 T10831094 =
2018-01-19 05:51 METAR KDAW 191051Z AUTO 00000KT 10SM OVC085 M08/M09 A2990 RMK AO2 SLP128
                 T10831094 =
2018-01-19 04:51 METAR KDAW 190951Z AUTO 00000KT 10SM CLR M09/M10 A2989 RMK AO2 SLP124 T10891100
                 =
2018-01-19 03:51 METAR KDAW 190851Z AUTO 00000KT 10SM CLR M09/M11 A2988 RMK AO2 SLP120 T10891106
                 50000 =
2018-01-19 02:51 METAR KDAW 190751Z AUTO 00000KT 10SM CLR M10/M11 A2989 RMK AO2 SLP124 T11001111
                 =
2018-01-19 01:51 METAR KDAW 190651Z AUTO 00000KT 10SM CLR M08/M10 A2989 RMK AO2 SLP124 T10831100
                 =
2018-01-19 00:51 METAR KDAW 190551Z AUTO 00000KT 10SM CLR M07/M09 A2988 RMK AO2 SLP119 T10721094
                 11028 21089 58008 =
2018-01-18 23:51 METAR KDAW 190451Z AUTO 32003KT 10SM CLR M08/M09 A2989 RMK AO2 SLP124 T10781094
                 410111106 =
2018-01-18 22:51 METAR KDAW 190351Z AUTO VRB03KT 10SM CLR M06/M09 A2991 RMK AO2 SLP129 T10611089
                 =

Support USWX by starting your Amazon purchase here.